sensor_id;sensor_type;location;lat;lon;timestamp;pressure;altitude;pressure_sealevel;temperature;humidity
51261;BME280;61705;46.228;24.812;2022-10-31T00:01:31;98100.38;;;11.11;86.70
51261;BME280;61705;46.228;24.812;2022-10-31T00:03:58;98105.50;;;11.15;86.76
51261;BME280;61705;46.228;24.812;2022-10-31T00:06:25;98108.03;;;11.19;86.55
51261;BME280;61705;46.228;24.812;2022-10-31T00:08:53;98100.94;;;11.19;86.52
51261;BME280;61705;46.228;24.812;2022-10-31T00:11:21;98098.34;;;11.18;86.71
51261;BME280;61705;46.228;24.812;2022-10-31T00:13:48;98102.66;;;11.20;86.73
51261;BME280;61705;46.228;24.812;2022-10-31T00:16:22;98101.88;;;11.18;86.43
51261;BME280;61705;46.228;24.812;2022-10-31T00:18:57;98091.13;;;11.21;86.51
51261;BME280;61705;46.228;24.812;2022-10-31T00:21:25;98096.44;;;11.21;86.25
51261;BME280;61705;46.228;24.812;2022-10-31T00:23:52;98095.56;;;11.21;86.30
51261;BME280;61705;46.228;24.812;2022-10-31T00:26:19;98097.44;;;11.19;86.27
51261;BME280;61705;46.228;24.812;2022-10-31T00:28:46;98098.22;;;11.21;86.33
51261;BME280;61705;46.228;24.812;2022-10-31T00:31:15;98098.22;;;11.21;86.38
51261;BME280;61705;46.228;24.812;2022-10-31T00:33:42;98088.81;;;11.13;86.51
51261;BME280;61705;46.228;24.812;2022-10-31T00:36:17;98087.09;;;11.12;86.49
51261;BME280;61705;46.228;24.812;2022-10-31T00:38:45;98088.69;;;11.17;86.48
51261;BME280;61705;46.228;24.812;2022-10-31T00:41:14;98097.44;;;11.19;86.32
51261;BME280;61705;46.228;24.812;2022-10-31T00:43:42;98092.94;;;11.21;86.11
51261;BME280;61705;46.228;24.812;2022-10-31T00:46:09;98090.28;;;11.21;86.13
51261;BME280;61705;46.228;24.812;2022-10-31T00:48:36;98087.75;;;11.18;86.13
51261;BME280;61705;46.228;24.812;2022-10-31T00:51:03;98085.13;;;11.18;85.95
51261;BME280;61705;46.228;24.812;2022-10-31T00:53:29;98097.50;;;11.17;86.12
51261;BME280;61705;46.228;24.812;2022-10-31T00:55:56;98094.91;;;11.15;86.18
51261;BME280;61705;46.228;24.812;2022-10-31T00:58:23;98100.00;;;11.20;86.03
51261;BME280;61705;46.228;24.812;2022-10-31T01:00:49;98100.22;;;11.15;86.44
51261;BME280;61705;46.228;24.812;2022-10-31T01:03:27;98095.09;;;11.11;86.53
51261;BME280;61705;46.228;24.812;2022-10-31T01:06:15;98098.41;;;11.16;86.33
51261;BME280;61705;46.228;24.812;2022-10-31T01:08:42;98093.94;;;11.18;86.36
51261;BME280;61705;46.228;24.812;2022-10-31T01:13:39;98087.16;;;11.11;86.58
51261;BME280;61705;46.228;24.812;2022-10-31T01:16:07;98090.59;;;11.13;86.56
51261;BME280;61705;46.228;24.812;2022-10-31T01:18:34;98100.22;;;11.15;86.53
51261;BME280;61705;46.228;24.812;2022-10-31T01:21:04;98088.44;;;11.23;86.30
51261;BME280;61705;46.228;24.812;2022-10-31T01:23:35;98086.91;;;11.17;86.21
51261;BME280;61705;46.228;24.812;2022-10-31T01:26:06;98096.59;;;11.18;86.24
51261;BME280;61705;46.228;24.812;2022-10-31T01:28:35;98094.84;;;11.17;86.29
51261;BME280;61705;46.228;24.812;2022-10-31T01:31:04;98097.44;;;11.19;86.14
51261;BME280;61705;46.228;24.812;2022-10-31T01:33:32;98097.50;;;11.17;86.11
51261;BME280;61705;46.228;24.812;2022-10-31T01:35:58;98104.53;;;11.18;86.18
51261;BME280;61705;46.228;24.812;2022-10-31T01:38:25;98092.19;;;11.17;86.10
51261;BME280;61705;46.228;24.812;2022-10-31T01:40:52;98095.91;;;11.13;86.26
51261;BME280;61705;46.228;24.812;2022-10-31T01:43:19;98102.00;;;11.15;86.23
51261;BME280;61705;46.228;24.812;2022-10-31T01:45:51;98094.97;;;11.14;86.42
51261;BME280;61705;46.228;24.812;2022-10-31T01:48:21;98098.66;;;11.10;86.69
51261;BME280;61705;46.228;24.812;2022-10-31T01:50:51;98090.19;;;11.02;86.74
51261;BME280;61705;46.228;24.812;2022-10-31T01:53:20;98089.38;;;11.00;87.21
51261;BME280;61705;46.228;24.812;2022-10-31T01:55:52;98084.94;;;11.00;87.45
51261;BME280;61705;46.228;24.812;2022-10-31T01:58:25;98091.91;;;11.03;87.21
51261;BME280;61705;46.228;24.812;2022-10-31T02:00:58;98077.88;;;11.01;87.36
51261;BME280;61705;46.228;24.812;2022-10-31T02:03:33;98073.34;;;11.04;87.34
51261;BME280;61705;46.228;24.812;2022-10-31T02:06:00;98078.38;;;11.10;87.09
51261;BME280;61705;46.228;24.812;2022-10-31T02:08:29;98073.34;;;11.04;87.28
51261;BME280;61705;46.228;24.812;2022-10-31T02:10:58;98077.75;;;11.04;87.30
51261;BME280;61705;46.228;24.812;2022-10-31T02:13:25;98077.09;;;10.99;87.77
51261;BME280;61705;46.228;24.812;2022-10-31T02:16:03;98076.28;;;10.97;87.87
51261;BME280;61705;46.228;24.812;2022-10-31T02:18:30;98086.94;;;10.95;87.85
51261;BME280;61705;46.228;24.812;2022-10-31T02:37:03;98095.91;;;10.91;88.50
51261;BME280;61705;46.228;24.812;2022-10-31T02:39:55;98095.84;;;10.93;88.40
51261;BME280;61705;46.228;24.812;2022-10-31T02:42:42;98093.31;;;10.89;88.50
51261;BME280;61705;46.228;24.812;2022-10-31T02:47:53;98100.59;;;10.84;88.92
51261;BME280;61705;46.228;24.812;2022-10-31T02:50:30;98093.41;;;10.88;88.83
51261;BME280;61705;46.228;24.812;2022-10-31T02:53:00;98103.13;;;10.87;88.82
51261;BME280;61705;46.228;24.812;2022-10-31T02:57:58;98101.00;;;10.96;88.31
51261;BME280;61705;46.228;24.812;2022-10-31T03:00:30;98100.28;;;10.92;88.70
51261;BME280;61705;46.228;24.812;2022-10-31T03:03:24;98102.72;;;10.97;88.63
51261;BME280;61705;46.228;24.812;2022-10-31T03:06:09;98102.50;;;11.03;88.10
51261;BME280;61705;46.228;24.812;2022-10-31T03:08:53;98101.81;;;10.98;88.09
51261;BME280;61705;46.228;24.812;2022-10-31T03:11:24;98107.13;;;10.98;88.16
51261;BME280;61705;46.228;24.812;2022-10-31T03:14:05;98105.13;;;11.03;87.86
51261;BME280;61705;46.228;24.812;2022-10-31T03:16:50;98112.22;;;11.02;87.83
51261;BME280;61705;46.228;24.812;2022-10-31T03:19:28;98102.72;;;10.97;88.08
51261;BME280;61705;46.228;24.812;2022-10-31T03:22:02;98115.91;;;10.98;88.09
51261;BME280;61705;46.228;24.812;2022-10-31T03:24:32;98114.34;;;10.93;88.50
51261;BME280;61705;46.228;24.812;2022-10-31T03:27:01;98117.06;;;10.91;88.69
51261;BME280;61705;46.228;24.812;2022-10-31T03:29:35;98115.22;;;10.93;88.60
51261;BME280;61705;46.228;24.812;2022-10-31T03:32:07;98109.16;;;10.91;88.66
51261;BME280;61705;46.228;24.812;2022-10-31T03:34:37;98113.53;;;10.90;88.74
51261;BME280;61705;46.228;24.812;2022-10-31T03:37:08;98111.91;;;10.88;89.07
51261;BME280;61705;46.228;24.812;2022-10-31T03:39:36;98112.63;;;10.91;89.08
51261;BME280;61705;46.228;24.812;2022-10-31T03:42:11;98113.44;;;10.94;88.95
51261;BME280;61705;46.228;24.812;2022-10-31T03:44:47;98117.94;;;10.91;88.95
51261;BME280;61705;46.228;24.812;2022-10-31T03:47:15;98115.28;;;10.91;88.92
51261;BME280;61705;46.228;24.812;2022-10-31T03:49:42;98117.06;;;10.91;89.15
51261;BME280;61705;46.228;24.812;2022-10-31T03:52:27;98122.16;;;10.96;89.07
51261;BME280;61705;46.228;24.812;2022-10-31T03:55:09;98126.47;;;10.98;89.01
51261;BME280;61705;46.228;24.812;2022-10-31T04:00:09;98117.50;;;11.02;88.74
51261;BME280;61705;46.228;24.812;2022-10-31T04:02:40;98114.31;;;10.94;88.56
51261;BME280;61705;46.228;24.812;2022-10-31T04:05:10;98112.69;;;10.90;88.72
51261;BME280;61705;46.228;24.812;2022-10-31T04:07:43;98116.34;;;10.87;88.77
51261;BME280;61705;46.228;24.812;2022-10-31T04:10:13;98116.88;;;10.96;88.40
51261;BME280;61705;46.228;24.812;2022-10-31T04:12:45;98125.78;;;10.93;88.53
51261;BME280;61705;46.228;24.812;2022-10-31T04:15:15;98124.00;;;10.94;88.51
51261;BME280;61705;46.228;24.812;2022-10-31T04:17:55;98129.41;;;10.90;88.46
51261;BME280;61705;46.228;24.812;2022-10-31T04:20:39;98135.94;;;10.82;88.78
51261;BME280;61705;46.228;24.812;2022-10-31T04:23:16;98134.03;;;10.85;88.72
51261;BME280;61705;46.228;24.812;2022-10-31T04:25:43;98126.03;;;10.87;88.66
51261;BME280;61705;46.228;24.812;2022-10-31T04:28:10;98123.03;;;10.96;88.24
51261;BME280;61705;46.228;24.812;2022-10-31T04:30:37;98126.53;;;10.97;88.08
51261;BME280;61705;46.228;24.812;2022-10-31T04:33:03;98131.88;;;10.95;87.93
51261;BME280;61705;46.228;24.812;2022-10-31T04:35:30;98133.06;;;10.88;88.37
51261;BME280;61705;46.228;24.812;2022-10-31T04:37:57;98129.56;;;10.87;88.22
51261;BME280;61705;46.228;24.812;2022-10-31T04:40:23;98135.59;;;10.91;88.10
51261;BME280;61705;46.228;24.812;2022-10-31T04:42:50;98124.94;;;10.93;88.01
51261;BME280;61705;46.228;24.812;2022-10-31T04:45:17;98125.78;;;10.93;87.90
51261;BME280;61705;46.228;24.812;2022-10-31T04:47:53;98125.75;;;10.95;87.90
51261;BME280;61705;46.228;24.812;2022-10-31T04:50:19;98121.34;;;10.94;87.76
51261;BME280;61705;46.228;24.812;2022-10-31T04:52:46;98125.66;;;10.96;87.72
51261;BME280;61705;46.228;24.812;2022-10-31T04:55:13;98125.66;;;10.96;87.71
51261;BME280;61705;46.228;24.812;2022-10-31T04:57:45;98125.47;;;11.01;87.59
51261;BME280;61705;46.228;24.812;2022-10-31T05:00:14;98125.47;;;11.01;87.28
51261;BME280;61705;46.228;24.812;2022-10-31T05:02:48;98125.56;;;10.99;87.42
51261;BME280;61705;46.228;24.812;2022-10-31T05:05:17;98126.47;;;10.98;87.63
51261;BME280;61705;46.228;24.812;2022-10-31T05:07:46;98131.69;;;11.00;87.36
51261;BME280;61705;46.228;24.812;2022-10-31T05:10:16;98129.97;;;10.99;87.37
51261;BME280;61705;46.228;24.812;2022-10-31T05:12:54;98139.94;;;10.92;87.57
51261;BME280;61705;46.228;24.812;2022-10-31T05:15:24;98130.28;;;10.91;87.69
51261;BME280;61705;46.228;24.812;2022-10-31T05:17:52;98140.69;;;10.96;87.66
51261;BME280;61705;46.228;24.812;2022-10-31T05:20:20;98142.50;;;10.94;87.62
51261;BME280;61705;46.228;24.812;2022-10-31T05:22:49;98136.31;;;10.95;87.64
51261;BME280;61705;46.228;24.812;2022-10-31T05:25:18;98136.97;;;11.00;87.43
51261;BME280;61705;46.228;24.812;2022-10-31T05:27:47;98150.09;;;11.03;87.26
51261;BME280;61705;46.228;24.812;2022-10-31T05:30:17;98152.94;;;10.98;87.13
51261;BME280;61705;46.228;24.812;2022-10-31T05:32:46;98144.13;;;10.98;87.39
51261;BME280;61705;46.228;24.812;2022-10-31T05:35:16;98147.53;;;11.01;87.20
51261;BME280;61705;46.228;24.812;2022-10-31T05:37:43;98147.69;;;10.97;87.08
51261;BME280;61705;46.228;24.812;2022-10-31T05:40:11;98160.00;;;10.98;87.25
51261;BME280;61705;46.228;24.812;2022-10-31T05:42:39;98156.34;;;11.00;87.09
51261;BME280;61705;46.228;24.812;2022-10-31T05:45:08;98156.53;;;10.96;87.16
51261;BME280;61705;46.228;24.812;2022-10-31T05:47:35;98161.75;;;10.97;87.15
51261;BME280;61705;46.228;24.812;2022-10-31T05:50:02;98159.00;;;11.00;87.16
51261;BME280;61705;46.228;24.812;2022-10-31T05:52:29;98155.44;;;11.01;87.17
51261;BME280;61705;46.228;24.812;2022-10-31T05:54:56;98158.03;;;11.03;86.92
51261;BME280;61705;46.228;24.812;2022-10-31T05:57:23;98157.81;;;11.07;86.97
51261;BME280;61705;46.228;24.812;2022-10-31T05:59:50;98168.41;;;11.07;87.08
51261;BME280;61705;46.228;24.812;2022-10-31T06:02:20;98171.94;;;11.08;87.01
51261;BME280;61705;46.228;24.812;2022-10-31T06:04:47;98163.06;;;11.09;86.86
51261;BME280;61705;46.228;24.812;2022-10-31T06:07:14;98174.59;;;11.08;86.69
51261;BME280;61705;46.228;24.812;2022-10-31T06:09:41;98171.38;;;11.00;87.17
51261;BME280;61705;46.228;24.812;2022-10-31T06:12:08;98175.25;;;10.91;87.37
51261;BME280;61705;46.228;24.812;2022-10-31T06:14:34;98176.03;;;10.93;87.23
51261;BME280;61705;46.228;24.812;2022-10-31T06:17:01;98178.75;;;10.91;87.23
51261;BME280;61705;46.228;24.812;2022-10-31T06:19:29;98179.41;;;10.97;87.15
51261;BME280;61705;46.228;24.812;2022-10-31T06:21:56;98176.63;;;11.01;87.27
51261;BME280;61705;46.228;24.812;2022-10-31T06:24:22;98179.84;;;10.86;87.56
51261;BME280;61705;46.228;24.812;2022-10-31T06:26:49;98186.78;;;10.88;87.57
51261;BME280;61705;46.228;24.812;2022-10-31T06:29:16;98188.34;;;10.94;87.54
51261;BME280;61705;46.228;24.812;2022-10-31T06:31:43;98190.38;;;11.09;87.09
51261;BME280;61705;46.228;24.812;2022-10-31T06:34:10;98187.66;;;11.11;86.54
51261;BME280;61705;46.228;24.812;2022-10-31T06:36:36;98186.88;;;11.09;86.28
51261;BME280;61705;46.228;24.812;2022-10-31T06:39:03;98191.34;;;11.07;86.21
51261;BME280;61705;46.228;24.812;2022-10-31T06:41:30;98188.91;;;11.02;86.30
51261;BME280;61705;46.228;24.812;2022-10-31T06:43:56;98190.84;;;10.97;86.40
51261;BME280;61705;46.228;24.812;2022-10-31T06:46:23;98202.13;;;11.02;86.48
51261;BME280;61705;46.228;24.812;2022-10-31T06:48:50;98207.53;;;10.99;86.52
51261;BME280;61705;46.228;24.812;2022-10-31T06:51:16;98200.44;;;11.00;86.58
51261;BME280;61705;46.228;24.812;2022-10-31T06:53:43;98205.59;;;11.04;86.59
51261;BME280;61705;46.228;24.812;2022-10-31T06:56:10;98213.16;;;10.90;86.73
51261;BME280;61705;46.228;24.812;2022-10-31T06:58:36;98206.56;;;10.78;87.58
51261;BME280;61705;46.228;24.812;2022-10-31T07:01:03;98215.44;;;10.77;87.69
51261;BME280;61705;46.228;24.812;2022-10-31T07:03:30;98218.97;;;10.76;87.95
51261;BME280;61705;46.228;24.812;2022-10-31T07:05:57;98212.38;;;10.88;87.59
51261;BME280;61705;46.228;24.812;2022-10-31T07:08:24;98214.53;;;11.00;87.52
51261;BME280;61705;46.228;24.812;2022-10-31T07:10:55;98212.41;;;11.10;86.96
51261;BME280;61705;46.228;24.812;2022-10-31T07:13:23;98205.28;;;11.12;86.81
51261;BME280;61705;46.228;24.812;2022-10-31T07:15:55;98207.06;;;11.11;86.78
51261;BME280;61705;46.228;24.812;2022-10-31T07:18:22;98205.50;;;11.06;86.65
51261;BME280;61705;46.228;24.812;2022-10-31T07:20:48;98203.16;;;10.98;86.81
51261;BME280;61705;46.228;24.812;2022-10-31T07:23:15;98215.56;;;10.96;87.05
51261;BME280;61705;46.228;24.812;2022-10-31T07:25:42;98222.59;;;10.97;87.38
51261;BME280;61705;46.228;24.812;2022-10-31T07:28:09;98222.59;;;10.97;87.09
51261;BME280;61705;46.228;24.812;2022-10-31T07:30:37;98216.50;;;10.95;87.42
51261;BME280;61705;46.228;24.812;2022-10-31T07:33:04;98204.81;;;11.01;87.16
51261;BME280;61705;46.228;24.812;2022-10-31T07:35:31;98210.06;;;11.02;87.19
51261;BME280;61705;46.228;24.812;2022-10-31T07:38:07;98213.63;;;11.01;87.01
51261;BME280;61705;46.228;24.812;2022-10-31T07:40:34;98219.56;;;11.08;86.95
51261;BME280;61705;46.228;24.812;2022-10-31T07:43:01;98209.00;;;11.06;87.19
51261;BME280;61705;46.228;24.812;2022-10-31T07:45:28;98215.22;;;11.05;87.04
51261;BME280;61705;46.228;24.812;2022-10-31T07:47:55;98218.63;;;11.09;87.02
51261;BME280;61705;46.228;24.812;2022-10-31T07:50:27;98219.41;;;11.11;86.81
51261;BME280;61705;46.228;24.812;2022-10-31T07:53:05;98218.13;;;11.21;86.40
51261;BME280;61705;46.228;24.812;2022-10-31T07:55:32;98210.38;;;11.17;86.59
51261;BME280;61705;46.228;24.812;2022-10-31T07:58:04;98217.47;;;11.16;86.43
51261;BME280;61705;46.228;24.812;2022-10-31T08:00:36;98214.34;;;11.28;86.24
51261;BME280;61705;46.228;24.812;2022-10-31T08:03:10;98211.50;;;11.33;85.92
51261;BME280;61705;46.228;24.812;2022-10-31T08:05:39;98214.69;;;11.19;86.24
51261;BME280;61705;46.228;24.812;2022-10-31T08:08:08;98223.38;;;11.23;86.19
51261;BME280;61705;46.228;24.812;2022-10-31T08:10:35;98221.38;;;11.28;86.04
51261;BME280;61705;46.228;24.812;2022-10-31T08:13:10;98217.09;;;11.25;85.86
51261;BME280;61705;46.228;24.812;2022-10-31T08:15:37;98223.13;;;11.29;85.89
51261;BME280;61705;46.228;24.812;2022-10-31T08:18:11;98220.09;;;11.38;85.63
51261;BME280;61705;46.228;24.812;2022-10-31T08:20:40;98219.63;;;11.50;85.09
51261;BME280;61705;46.228;24.812;2022-10-31T08:23:09;98217.59;;;11.57;84.85
51261;BME280;61705;46.228;24.812;2022-10-31T08:25:37;98219.13;;;11.62;84.65
51261;BME280;61705;46.228;24.812;2022-10-31T08:28:06;98221.63;;;11.66;84.46
51261;BME280;61705;46.228;24.812;2022-10-31T08:30:35;98224.44;;;11.62;84.53
51261;BME280;61705;46.228;24.812;2022-10-31T08:35:32;98233.88;;;11.68;84.13
51261;BME280;61705;46.228;24.812;2022-10-31T08:37:59;98232.22;;;11.66;84.08
51261;BME280;61705;46.228;24.812;2022-10-31T08:40:28;98234.88;;;11.66;84.01
51261;BME280;61705;46.228;24.812;2022-10-31T08:43:04;98230.50;;;11.65;84.06
51261;BME280;61705;46.228;24.812;2022-10-31T08:45:33;98242.56;;;11.72;83.89
51261;BME280;61705;46.228;24.812;2022-10-31T08:48:02;98240.94;;;11.69;83.79
51261;BME280;61705;46.228;24.812;2022-10-31T08:50:31;98242.69;;;11.69;83.54
51261;BME280;61705;46.228;24.812;2022-10-31T08:55:33;98241.78;;;11.70;83.64
51261;BME280;61705;46.228;24.812;2022-10-31T08:58:00;98243.38;;;11.74;83.42
51261;BME280;61705;46.228;24.812;2022-10-31T09:00:27;98239.78;;;11.75;83.29
51261;BME280;61705;46.228;24.812;2022-10-31T09:02:58;98234.25;;;11.81;83.13
51261;BME280;61705;46.228;24.812;2022-10-31T09:05:25;98243.16;;;11.78;83.06
51261;BME280;61705;46.228;24.812;2022-10-31T09:07:56;98239.59;;;11.79;82.83
51261;BME280;61705;46.228;24.812;2022-10-31T09:10:25;98242.13;;;11.82;83.03
51261;BME280;61705;46.228;24.812;2022-10-31T09:13:00;98246.56;;;11.82;82.81
51261;BME280;61705;46.228;24.812;2022-10-31T09:15:28;98249.19;;;11.82;82.90
51261;BME280;61705;46.228;24.812;2022-10-31T09:17:55;98257.34;;;11.77;83.29
51261;BME280;61705;46.228;24.812;2022-10-31T09:20:22;98249.28;;;11.80;83.04
51261;BME280;61705;46.228;24.812;2022-10-31T09:22:56;98246.63;;;11.80;83.23
51261;BME280;61705;46.228;24.812;2022-10-31T09:25:26;98254.22;;;11.90;83.00
51261;BME280;61705;46.228;24.812;2022-10-31T09:28:00;98249.69;;;11.93;82.73
51261;BME280;61705;46.228;24.812;2022-10-31T09:30:31;98251.13;;;12.00;82.73
51261;BME280;61705;46.228;24.812;2022-10-31T09:33:09;98259.03;;;12.22;82.19
51261;BME280;61705;46.228;24.812;2022-10-31T09:35:39;98251.94;;;12.23;81.79
51261;BME280;61705;46.228;24.812;2022-10-31T09:38:10;98255.38;;;12.25;81.55
51261;BME280;61705;46.228;24.812;2022-10-31T09:43:20;98248.75;;;12.35;81.06
51261;BME280;61705;46.228;24.812;2022-10-31T09:46:01;98246.97;;;12.36;80.97
51261;BME280;61705;46.228;24.812;2022-10-31T09:51:50;98247.31;;;12.28;80.73
51261;BME280;61705;46.228;24.812;2022-10-31T09:54:40;98248.06;;;12.50;80.12
51261;BME280;61705;46.228;24.812;2022-10-31T09:57:15;98246.25;;;12.52;79.21
51261;BME280;61705;46.228;24.812;2022-10-31T09:59:44;98247.19;;;12.51;79.19
51261;BME280;61705;46.228;24.812;2022-10-31T10:02:19;98242.38;;;12.60;78.95
51261;BME280;61705;46.228;24.812;2022-10-31T10:05:01;98246.69;;;12.62;78.56
51261;BME280;61705;46.228;24.812;2022-10-31T10:10:24;98247.88;;;12.75;78.25
51261;BME280;61705;46.228;24.812;2022-10-31T10:13:16;98244.38;;;12.94;77.86
51261;BME280;61705;46.228;24.812;2022-10-31T10:15:54;98237.72;;;13.04;77.52
51261;BME280;61705;46.228;24.812;2022-10-31T10:24:01;98218.72;;;13.13;76.59
51261;BME280;61705;46.228;24.812;2022-10-31T10:26:36;98220.34;;;13.16;76.57
51261;BME280;61705;46.228;24.812;2022-10-31T10:29:36;98226.44;;;13.18;76.62
51261;BME280;61705;46.228;24.812;2022-10-31T10:32:06;98221.22;;;13.16;76.88
51261;BME280;61705;46.228;24.812;2022-10-31T10:34:41;98223.88;;;13.16;76.35
51261;BME280;61705;46.228;24.812;2022-10-31T10:37:35;98224.31;;;13.26;76.45
51261;BME280;61705;46.228;24.812;2022-10-31T10:40:24;98227.38;;;13.36;76.08
51261;BME280;61705;46.228;24.812;2022-10-31T10:43:19;98223.44;;;13.25;76.34
51261;BME280;61705;46.228;24.812;2022-10-31T11:00:30;98215.47;;;13.44;75.78
51261;BME280;61705;46.228;24.812;2022-10-31T11:02:59;98214.41;;;13.48;75.50
51261;BME280;61705;46.228;24.812;2022-10-31T11:08:01;98210.91;;;13.65;74.89
51261;BME280;61705;46.228;24.812;2022-10-31T11:10:28;98216.81;;;13.53;74.89
51261;BME280;61705;46.228;24.812;2022-10-31T11:13:17;98215.34;;;13.47;74.68
51261;BME280;61705;46.228;24.812;2022-10-31T11:19:06;98211.44;;;13.55;74.60
51261;BME280;61705;46.228;24.812;2022-10-31T11:21:34;98213.16;;;13.56;75.03
51261;BME280;61705;46.228;24.812;2022-10-31T11:26:33;98207.47;;;13.63;75.32
51261;BME280;61705;46.228;24.812;2022-10-31T11:29:01;98206.75;;;13.60;75.05
51261;BME280;61705;46.228;24.812;2022-10-31T11:31:32;98203.97;;;13.80;74.42
51261;BME280;61705;46.228;24.812;2022-10-31T11:34:03;98203.28;;;13.94;73.99
51261;BME280;61705;46.228;24.812;2022-10-31T11:36:35;98199.16;;;13.88;73.41
51261;BME280;61705;46.228;24.812;2022-10-31T11:39:05;98195.41;;;13.92;73.51
51261;BME280;61705;46.228;24.812;2022-10-31T11:41:41;98192.72;;;14.10;73.05
51261;BME280;61705;46.228;24.812;2022-10-31T11:44:23;98199.75;;;14.28;72.35
51261;BME280;61705;46.228;24.812;2022-10-31T11:46:55;98191.63;;;14.31;71.63
51261;BME280;61705;46.228;24.812;2022-10-31T11:49:32;98184.84;;;14.26;72.03
51261;BME280;61705;46.228;24.812;2022-10-31T11:52:05;98184.34;;;14.35;71.84
51261;BME280;61705;46.228;24.812;2022-10-31T11:54:34;98186.56;;;14.09;72.05
51261;BME280;61705;46.228;24.812;2022-10-31T11:59:50;98189.53;;;13.86;73.40
51261;BME280;61705;46.228;24.812;2022-10-31T12:02:18;98174.53;;;14.02;73.23
51261;BME280;61705;46.228;24.812;2022-10-31T12:04:47;98176.50;;;13.98;73.17
51261;BME280;61705;46.228;24.812;2022-10-31T12:07:16;98184.97;;;13.88;73.59
51261;BME280;61705;46.228;24.812;2022-10-31T12:09:43;98186.31;;;13.79;74.00
51261;BME280;61705;46.228;24.812;2022-10-31T12:15:31;98188.19;;;13.77;74.48
51261;BME280;61705;46.228;24.812;2022-10-31T12:20:40;98182.47;;;13.67;74.88
51261;BME280;61705;46.228;24.812;2022-10-31T12:26:15;98175.03;;;13.57;75.18
51261;BME280;61705;46.228;24.812;2022-10-31T12:35:09;98175.59;;;13.81;73.84
51261;BME280;61705;46.228;24.812;2022-10-31T12:43:39;98165.31;;;13.92;73.43
51261;BME280;61705;46.228;24.812;2022-10-31T12:49:12;98169.53;;;13.96;73.27
51261;BME280;61705;46.228;24.812;2022-10-31T12:52:07;98170.09;;;13.85;73.65
51261;BME280;61705;46.228;24.812;2022-10-31T12:57:33;98165.28;;;13.57;74.63
51261;BME280;61705;46.228;24.812;2022-10-31T13:00:15;98162.16;;;13.66;74.68
51261;BME280;61705;46.228;24.812;2022-10-31T13:03:02;98162.47;;;13.78;74.37
51261;BME280;61705;46.228;24.812;2022-10-31T13:05:45;98157.81;;;13.65;74.68
51261;BME280;61705;46.228;24.812;2022-10-31T13:08:19;98154.44;;;13.62;74.76
51261;BME280;61705;46.228;24.812;2022-10-31T13:13:58;98159.22;;;13.72;74.66
51261;BME280;61705;46.228;24.812;2022-10-31T13:16:35;98165.22;;;13.59;75.19
51261;BME280;61705;46.228;24.812;2022-10-31T13:19:15;98153.50;;;13.80;74.35
51261;BME280;61705;46.228;24.812;2022-10-31T13:22:09;98159.31;;;13.71;74.50
51261;BME280;61705;46.228;24.812;2022-10-31T13:27:18;98158.63;;;13.48;75.36
51261;BME280;61705;46.228;24.812;2022-10-31T13:32:20;98154.19;;;13.84;74.61
51261;BME280;61705;46.228;24.812;2022-10-31T13:34:51;98151.25;;;13.90;74.39
51261;BME280;61705;46.228;24.812;2022-10-31T13:37:40;98158.06;;;13.78;74.09
51261;BME280;61705;46.228;24.812;2022-10-31T13:40:21;98159.44;;;13.68;74.60
51261;BME280;61705;46.228;24.812;2022-10-31T13:42:55;98157.25;;;13.59;74.80
51261;BME280;61705;46.228;24.812;2022-10-31T13:45:55;98159.81;;;13.60;74.87
51261;BME280;61705;46.228;24.812;2022-10-31T13:48:45;98152.66;;;13.80;74.35
51261;BME280;61705;46.228;24.812;2022-10-31T13:51:11;98144.81;;;13.77;74.73
51261;BME280;61705;46.228;24.812;2022-10-31T13:53:57;98148.44;;;13.75;74.80
51261;BME280;61705;46.228;24.812;2022-10-31T13:56:32;98158.91;;;13.61;74.95
51261;BME280;61705;46.228;24.812;2022-10-31T14:01:36;98145.22;;;13.69;75.06
51261;BME280;61705;46.228;24.812;2022-10-31T14:04:16;98141.63;;;13.87;74.70
51261;BME280;61705;46.228;24.812;2022-10-31T14:07:10;98143.00;;;14.12;73.75
51261;BME280;61705;46.228;24.812;2022-10-31T14:12:49;98139.59;;;14.43;72.53
51261;BME280;61705;46.228;24.812;2022-10-31T14:15:16;98146.84;;;14.23;73.18
51261;BME280;61705;46.228;24.812;2022-10-31T14:22:40;98139.25;;;14.16;73.33
51261;BME280;61705;46.228;24.812;2022-10-31T14:27:53;98141.22;;;14.45;72.82
51261;BME280;61705;46.228;24.812;2022-10-31T14:30:21;98137.88;;;14.42;72.68
51261;BME280;61705;46.228;24.812;2022-10-31T14:32:49;98138.69;;;14.27;73.06
51261;BME280;61705;46.228;24.812;2022-10-31T14:35:17;98141.06;;;14.15;73.46
51261;BME280;61705;46.228;24.812;2022-10-31T14:50:49;98139.50;;;13.23;76.55
51261;BME280;61705;46.228;24.812;2022-10-31T14:55:52;98143.41;;;12.97;77.39
51261;BME280;61705;46.228;24.812;2022-10-31T14:58:35;98148.00;;;12.93;77.69
51261;BME280;61705;46.228;24.812;2022-10-31T15:01:03;98145.88;;;12.83;78.27
51261;BME280;61705;46.228;24.812;2022-10-31T15:03:37;98142.06;;;12.69;78.61
51261;BME280;61705;46.228;24.812;2022-10-31T15:06:20;98153.19;;;12.59;79.16
51261;BME280;61705;46.228;24.812;2022-10-31T15:08:53;98146.94;;;12.60;79.14
51261;BME280;61705;46.228;24.812;2022-10-31T15:11:22;98150.94;;;12.49;79.21
51261;BME280;61705;46.228;24.812;2022-10-31T15:13:50;98148.28;;;12.49;79.47
51261;BME280;61705;46.228;24.812;2022-10-31T15:16:21;98157.00;;;12.32;79.96
51261;BME280;61705;46.228;24.812;2022-10-31T15:19:23;98157.22;;;12.28;80.13
51261;BME280;61705;46.228;24.812;2022-10-31T15:21:46;98159.63;;;12.14;80.58
51261;BME280;61705;46.228;24.812;2022-10-31T15:24:15;98164.25;;;12.08;80.77
51261;BME280;61705;46.228;24.812;2022-10-31T15:26:46;98171.13;;;12.13;80.72
51261;BME280;61705;46.228;24.812;2022-10-31T15:29:17;98165.94;;;12.09;80.67